Time;durP1;ratioP1;P1;durP2;ratioP2;P2;SDS_P1;SDS_P2;PMS_P1;PMS_P2;Temp;Humidity;BMP_temperature;BMP_pressure;BME280_temperature;BME280_humidity;BME280_pressure;Samples;Min_cycle;Max_cycle;Signal;HPM_P1;HPM_P2
2022/10/04 00:00:42;;;;;;;11.85;3.12;;;;;;;11.61;81.87;100543.83;2161858;81;34174;-64
2022/10/04 00:03:53;;;;;;;12.50;3.67;;;;;;;11.62;81.97;100545.56;2169652;81;27694;-66
2022/10/04 00:07:05;;;;;;;12.85;3.52;;;;;;;11.62;82.03;100544.23;2164166;81;27732;-64
2022/10/04 00:10:22;;;;;;;14.90;3.02;;;;;;;11.63;82.04;100540.60;2165549;81;28866;-65
2022/10/04 00:13:25;;;;;;;11.78;3.02;;;;;;;11.62;81.97;100546.91;2158543;81;30883;-67
2022/10/04 00:16:36;;;;;;;10.35;2.85;;;;;;;11.61;82.00;100542.98;2127018;81;33364;-65
2022/10/04 00:19:47;;;;;;;11.35;2.90;;;;;;;11.59;82.00;100537.67;2168603;81;29061;-66
2022/10/04 00:23:27;;;;;;;11.22;2.95;;;;;;;11.59;82.08;100534.98;2160725;81;27747;-65
2022/10/04 00:26:34;;;;;;;13.65;3.50;;;;;;;11.59;82.06;100534.12;2130829;82;29092;-66
2022/10/04 00:29:41;;;;;;;19.70;3.52;;;;;;;11.56;82.04;100533.82;2125394;82;32207;-66
2022/10/04 00:32:49;;;;;;;13.30;3.58;;;;;;;11.55;82.06;100534.28;2129291;82;33451;-66
2022/10/04 00:35:50;;;;;;;10.05;2.95;;;;;;;11.53;82.07;100527.27;2110544;82;29069;-63
2022/10/04 00:39:10;;;;;;;14.83;4.33;;;;;;;11.52;82.07;100530.89;2131697;82;27646;-64
2022/10/04 00:42:18;;;;;;;9.58;2.50;;;;;;;11.49;82.05;100524.33;2130709;82;28778;-66
2022/10/04 00:45:43;;;;;;;13.28;3.20;;;;;;;11.47;82.08;100523.53;2130470;82;31867;-65
2022/10/04 00:48:53;;;;;;;11.45;2.95;;;;;;;11.43;81.98;100529.98;2115717;83;32905;-65
2022/10/04 00:52:09;;;;;;;10.00;3.08;;;;;;;11.37;81.92;100533.84;2126323;83;29436;-65
2022/10/04 00:55:16;;;;;;;9.85;3.12;;;;;;;11.30;81.88;100534.63;2129554;82;28399;-64
2022/10/04 00:58:28;;;;;;;13.50;3.33;;;;;;;11.23;81.86;100529.18;2126931;83;29086;-65
2022/10/04 01:01:31;;;;;;;13.85;2.67;;;;;;;11.15;81.79;100523.30;2128297;83;30968;-63
2022/10/04 01:04:40;;;;;;;12.25;3.65;;;;;;;11.07;81.76;100527.25;2163700;81;33352;-64
2022/10/04 01:07:49;;;;;;;9.45;2.70;;;;;;;10.96;81.72;100526.87;2171040;81;29418;-65
2022/10/04 01:10:55;;;;;;;10.68;3.37;;;;;;;10.87;81.83;100523.30;2166820;81;27608;-64
2022/10/04 01:14:11;;;;;;;10.05;3.12;;;;;;;10.79;81.89;100531.70;2158402;81;29689;-65
2022/10/04 01:17:12;;;;;;;14.75;3.45;;;;;;;10.69;81.94;100529.03;2153962;81;32434;-65
2022/10/04 01:20:31;;;;;;;12.78;3.45;;;;;;;10.60;82.09;100531.21;2161561;81;34301;-64
2022/10/04 01:23:41;;;;;;;11.35;2.80;;;;;;;10.55;82.20;100529.69;2131071;82;29213;-66
2022/10/04 01:26:45;;;;;;;17.55;2.87;;;;;;;10.48;82.30;100534.46;2142495;82;27693;-65
2022/10/04 01:29:46;;;;;;;14.45;4.90;;;;;;;10.40;82.44;100528.11;2097485;83;28484;-67
2022/10/04 01:32:48;;;;;;;10.95;3.10;;;;;;;10.36;82.60;100530.48;2095357;83;31550;-66
2022/10/04 01:35:49;;;;;;;8.08;2.83;;;;;;;10.31;82.59;100534.72;2118761;83;33370;-66
2022/10/04 01:38:51;;;;;;;13.50;3.55;;;;;;;10.26;82.72;100531.85;2110442;83;29118;-66
2022/10/04 01:42:09;;;;;;;12.18;2.75;;;;;;;10.22;82.80;100536.45;2122254;82;27976;-66
2022/10/04 01:45:26;;;;;;;14.33;5.60;;;;;;;10.19;82.98;100536.13;2118022;82;29121;-65
2022/10/04 01:48:32;;;;;;;11.03;3.47;;;;;;;10.20;83.22;100532.97;2118755;83;30478;-65
2022/10/04 01:51:45;;;;;;;13.05;3.45;;;;;;;10.19;83.39;100529.44;2123292;81;32934;-65
2022/10/04 01:54:54;;;;;;;13.22;3.10;;;;;;;10.19;83.49;100534.80;2163212;81;30228;-65
2022/10/04 01:58:04;;;;;;;13.55;2.87;;;;;;;10.20;83.57;100538.33;2147345;81;27682;-65
2022/10/04 02:01:10;;;;;;;11.12;2.95;;;;;;;10.19;83.61;100534.80;2142213;81;29075;-65
2022/10/04 02:04:19;;;;;;;11.80;2.62;;;;;;;10.21;83.71;100534.71;2137945;81;31018;-64
2022/10/04 02:07:21;;;;;;;14.20;3.25;;;;;;;10.22;83.85;100530.24;2116320;80;34277;-65
2022/10/04 02:10:24;;;;;;;15.00;3.30;;;;;;;10.23;83.94;100530.16;2138697;82;28687;-65
2022/10/04 02:13:30;;;;;;;10.43;2.52;;;;;;;10.23;83.82;100535.52;2162983;81;27983;-64
2022/10/04 02:16:35;;;;;;;8.53;2.70;;;;;;;10.21;83.77;100529.84;2166101;80;29545;-65
2022/10/04 02:19:38;;;;;;;;;;;;;;;10.18;83.81;100527.70;2134986;81;30966;-65
2022/10/04 02:22:41;;;;;;;10.15;3.45;;;;;;;10.17;83.87;100530.45;2164662;81;33462;-66
2022/10/04 02:25:43;;;;;;;11.35;3.40;;;;;;;10.15;84.03;100527.83;2123826;81;30385;-65
2022/10/04 02:28:44;;;;;;;11.83;3.50;;;;;;;10.17;84.15;100525.95;2154719;82;27842;-64
2022/10/04 02:35:07;;;;;;;11.90;2.80;;;;;;;10.22;84.41;100525.74;2118433;82;31496;-66
2022/10/04 02:38:21;;;;;;;16.57;3.58;;;;;;;10.26;84.56;100531.37;2120462;82;33393;-64
2022/10/04 02:41:34;;;;;;;9.73;2.40;;;;;;;10.29;84.57;100530.34;2127540;81;30354;-65
2022/10/04 02:44:58;;;;;;;10.75;2.90;;;;;;;10.31;84.58;100527.14;2154432;82;27702;-64
2022/10/04 02:48:06;;;;;;;12.90;3.25;;;;;;;10.30;84.46;100526.28;2159177;81;29655;-63
2022/10/04 02:51:22;;;;;;;12.10;2.50;;;;;;;10.30;84.49;100534.31;2151238;82;31040;-65
2022/10/04 02:54:58;;;;;;;8.00;2.62;;;;;;;10.30;84.50;100535.66;2122740;83;33019;-64
2022/10/04 02:58:00;;;;;;;12.78;3.08;;;;;;;10.30;84.53;100531.64;2097565;83;29087;-64
2022/10/04 03:01:02;;;;;;;13.70;3.27;;;;;;;10.30;84.60;100531.64;2083753;84;27731;-64
2022/10/04 03:04:03;;;;;;;12.55;2.98;;;;;;;10.30;84.54;100528.08;2127831;81;28701;-65
2022/10/04 03:07:07;;;;;;;6.78;2.80;;;;;;;10.26;84.48;100521.14;2136581;81;31029;-63
2022/10/04 03:10:11;;;;;;;14.87;3.12;;;;;;;10.22;84.38;100527.08;2167051;81;33820;-64
2022/10/04 03:13:14;;;;;;;9.78;3.22;;;;;;;10.18;84.38;100524.13;2163110;82;29094;-64
2022/10/04 03:16:16;;;;;;;12.53;3.20;;;;;;;10.12;84.35;100520.41;2164043;81;27647;-62
2022/10/04 03:19:18;;;;;;;10.18;3.00;;;;;;;10.06;84.33;100518.87;2101337;82;28604;-63
2022/10/04 03:22:22;;;;;;;9.15;3.05;;;;;;;10.00;84.32;100524.03;2164452;81;30436;-64
2022/10/04 03:25:30;;;;;;;13.43;3.10;;;;;;;9.95;84.25;100523.80;2166775;81;34114;-65
2022/10/04 03:28:31;;;;;;;11.53;2.92;;;;;;;9.88;84.30;100537.47;2165778;81;30238;-63
2022/10/04 03:31:32;;;;;;;13.55;2.87;;;;;;;9.82;84.39;100542.22;2164297;81;27730;-64
2022/10/04 03:34:38;;;;;;;10.38;3.17;;;;;;;9.79;84.47;100547.21;2164304;81;28674;-64
2022/10/04 03:37:40;;;;;;;11.63;3.00;;;;;;;9.75;84.51;100545.63;2158688;82;31063;-64
2022/10/04 03:40:50;;;;;;;7.92;2.87;;;;;;;9.71;84.43;100549.36;2161349;81;32796;-63
2022/10/04 03:43:51;;;;;;;11.65;3.00;;;;;;;9.66;84.49;100546.88;2113082;83;29063;-65
2022/10/04 03:46:52;;;;;;;10.55;2.77;;;;;;;9.62;84.53;100547.94;2119613;83;27694;-65
2022/10/04 03:49:55;;;;;;;10.93;3.27;;;;;;;9.58;84.63;100545.87;2128332;82;29902;-65
2022/10/04 03:53:03;;;;;;;9.15;2.92;;;;;;;9.56;84.66;100555.75;2166299;81;31063;-64
2022/10/04 03:56:18;;;;;;;12.65;3.58;;;;;;;9.53;84.65;100546.52;2173785;81;33443;-63
2022/10/04 03:59:21;;;;;;;14.00;4.75;;;;;;;9.51;84.70;100552.88;2162465;81;28895;-63
2022/10/04 04:02:33;;;;;;;11.78;3.42;;;;;;;9.50;84.90;100557.81;2158130;81;27745;-65
2022/10/04 04:05:45;;;;;;;8.53;3.35;;;;;;;9.50;85.06;100561.34;2164000;81;29804;-64
2022/10/04 04:08:51;;;;;;;7.92;2.80;;;;;;;9.52;85.23;100556.81;2164373;81;31192;-64
2022/10/04 04:11:55;;;;;;;11.28;3.45;;;;;;;9.54;85.28;100555.39;2159704;81;33032;-64
2022/10/04 04:14:58;;;;;;;13.78;3.42;;;;;;;9.54;85.20;100550.05;2162303;81;29458;-63
2022/10/04 04:18:03;;;;;;;13.68;3.47;;;;;;;9.51;85.11;100555.06;2161936;81;27627;-63
2022/10/04 04:21:06;;;;;;;16.85;3.75;;;;;;;9.48;85.00;100557.86;2168608;81;29553;-64
2022/10/04 04:24:16;;;;;;;12.43;3.98;;;;;;;9.44;85.00;100553.56;2167183;81;31034;-63
2022/10/04 04:27:19;;;;;;;16.05;4.03;;;;;;;9.40;85.03;100555.50;2167017;81;33464;-63
2022/10/04 04:30:20;;;;;;;8.90;3.40;;;;;;;9.40;85.24;100559.51;2167719;81;30220;-63
2022/10/04 04:33:28;;;;;;;13.85;3.47;;;;;;;9.39;85.27;100557.77;2159115;81;28171;-64
2022/10/04 04:36:33;;;;;;;16.40;4.85;;;;;;;9.37;85.28;100558.77;2150699;81;29690;-64
2022/10/04 04:39:39;;;;;;;19.20;3.87;;;;;;;9.35;85.20;100564.16;2163127;81;31054;-64
2022/10/04 04:42:42;;;;;;;17.77;4.42;;;;;;;9.31;85.19;100566.58;2166248;81;33354;-64
2022/10/04 04:45:44;;;;;;;10.43;3.35;;;;;;;9.27;85.16;100565.81;2162210;81;30044;-64
2022/10/04 04:48:49;;;;;;;9.33;3.25;;;;;;;9.25;85.23;100573.50;2161802;81;27750;-63
2022/10/04 04:51:51;;;;;;;11.85;3.92;;;;;;;9.25;85.39;100576.17;2160464;81;29289;-63
2022/10/04 04:54:54;;;;;;;17.65;3.92;;;;;;;9.25;85.61;100578.84;2157829;81;32232;-64
2022/10/04 04:57:57;;;;;;;12.93;3.90;;;;;;;9.26;85.85;100580.59;2162323;81;33624;-63
2022/10/04 05:01:10;;;;;;;14.68;3.15;;;;;;;9.27;85.81;100575.17;2158355;81;29968;-65
2022/10/04 05:04:20;;;;;;;11.08;3.52;;;;;;;9.27;85.79;100575.65;2152038;81;27623;-64
2022/10/04 05:07:21;;;;;;;11.48;3.60;;;;;;;9.26;85.84;100578.80;2161085;81;28831;-64
2022/10/04 05:10:33;;;;;;;8.55;3.67;;;;;;;9.28;85.85;100584.93;2115500;82;31497;-64
2022/10/04 05:13:47;;;;;;;6.85;2.75;;;;;;;9.30;85.91;100584.89;2152089;81;33159;-64
2022/10/04 05:16:52;;;;;;;11.00;2.65;;;;;;;9.33;85.98;100586.55;2144058;81;30246;-64
2022/10/04 05:19:57;;;;;;;15.18;3.40;;;;;;;9.35;86.11;100587.38;2162355;81;27896;-64
2022/10/04 05:22:58;;;;;;;17.17;3.72;;;;;;;9.38;86.22;100591.27;2098376;82;29545;-64
2022/10/04 05:26:03;;;;;;;16.25;3.80;;;;;;;9.42;86.23;100588.88;2165596;81;31887;-64
2022/10/04 05:29:12;;;;;;;18.40;5.42;;;;;;;9.46;86.27;100597.64;2162496;81;33766;-63
2022/10/04 05:32:28;;;;;;;16.90;4.30;;;;;;;9.50;86.48;100604.13;2130376;82;29763;-64
2022/10/04 05:35:53;;;;;;;20.70;4.55;;;;;;;9.56;86.64;100605.23;2104281;82;27754;-64
2022/10/04 05:39:23;;;;;;;22.98;6.40;;;;;;;9.65;86.76;100613.80;2097145;83;29144;-64
2022/10/04 05:42:37;;;;;;;24.65;8.03;;;;;;;9.73;86.95;100619.25;2093933;83;32291;-64
2022/10/04 05:45:39;;;;;;;24.43;9.65;;;;;;;9.84;87.16;100625.98;2114263;83;33721;-63
2022/10/04 05:48:42;;;;;;;27.27;9.75;;;;;;;9.96;87.22;100629.92;2123830;82;29150;-64
2022/10/04 05:52:03;;;;;;;20.80;6.12;;;;;;;10.04;87.21;100627.81;2121334;83;27830;-65
2022/10/04 05:55:27;;;;;;;15.85;4.10;;;;;;;10.16;87.24;100629.11;2160586;81;29838;-64
2022/10/04 05:58:34;;;;;;;22.50;4.65;;;;;;;10.26;87.17;100629.10;2122617;82;30781;-64
2022/10/04 06:01:47;;;;;;;19.70;4.50;;;;;;;10.37;87.12;100634.00;2166691;81;33356;-65
2022/10/04 06:05:15;;;;;;;17.57;6.20;;;;;;;10.47;87.00;100634.02;2059511;85;30382;-65
2022/10/04 06:08:51;;;;;;;15.08;3.50;;;;;;;10.55;86.80;100637.70;2110865;83;27778;-64
2022/10/04 06:12:16;;;;;;;14.23;3.50;;;;;;;10.65;86.84;100638.16;2098829;83;29484;-64
2022/10/04 06:15:43;;;;;;;12.00;3.43;;;;;;;10.76;86.81;100651.94;2043487;85;31221;-64
2022/10/04 06:19:07;;;;;;;16.50;4.97;;;;;;;10.90;86.91;100648.65;2002077;86;33464;-64
2022/10/04 06:22:20;;;;;;;14.60;4.08;;;;;;;11.03;86.68;100652.98;1999681;86;29077;-65
2022/10/04 06:25:27;;;;;;;19.10;5.87;;;;;;;11.14;86.55;100660.55;2020363;87;27885;-66
2022/10/04 06:28:40;;;;;;;10.98;3.42;;;;;;;11.24;86.46;100659.16;2023984;85;29874;-66
2022/10/04 06:31:59;;;;;;;21.73;6.30;;;;;;;11.34;86.33;100660.95;2055327;85;31385;-66
2022/10/04 06:35:45;;;;;;;11.45;3.25;;;;;;;11.43;86.22;100658.30;2083830;83;33963;-62
2022/10/04 06:39:11;;;;;;;16.55;3.42;;;;;;;11.55;86.12;100659.05;2082418;85;29473;-65
2022/10/04 06:42:49;;;;;;;11.45;3.25;;;;;;;11.68;85.95;100657.11;2103416;83;27772;-64
2022/10/04 06:46:08;;;;;;;16.23;4.05;;;;;;;11.83;85.91;100652.81;2029378;84;29104;-64
2022/10/04 06:49:34;;;;;;;12.95;3.50;;;;;;;11.98;85.49;100656.11;2037250;85;30513;-66
2022/10/04 06:53:01;;;;;;;18.12;3.05;;;;;;;12.13;85.55;100663.89;2073460;84;34132;-66
2022/10/04 06:56:11;;;;;;;10.50;2.67;;;;;;;12.29;85.22;100661.27;2045376;84;30152;-67
2022/10/04 06:59:40;;;;;;;10.85;2.37;;;;;;;12.46;85.08;100669.83;2006502;86;28493;-67
2022/10/04 07:03:06;;;;;;;10.05;2.70;;;;;;;12.67;84.86;100675.01;2006220;86;29072;-67
2022/10/04 07:06:10;;;;;;;12.78;4.08;;;;;;;12.92;84.67;100669.20;1973083;88;31480;-66
2022/10/04 07:09:22;;;;;;;10.45;2.98;;;;;;;13.07;83.84;100675.59;1991737;86;32452;-67
2022/10/04 07:12:23;;;;;;;8.70;3.60;;;;;;;13.21;83.83;100688.30;1989005;86;29056;-67
2022/10/04 07:15:29;;;;;;;15.08;2.75;;;;;;;13.38;83.50;100683.81;1985367;86;27798;-67
2022/10/04 07:18:53;;;;;;;20.35;3.15;;;;;;;13.75;82.69;100688.98;1969151;86;29824;-66
2022/10/04 07:22:11;;;;;;;13.55;2.92;;;;;;;13.75;82.69;100688.98;2089382;84;31437;-67
2022/10/04 07:25:23;;;;;;;6.28;2.60;;;;;;;13.99;82.38;100694.78;2106597;82;32934;-67
2022/10/04 07:32:07;;;;;;;12.60;3.87;;;;;;;14.49;81.53;100683.81;2098220;82;27686;-68
2022/10/04 07:35:15;;;;;;;10.18;2.80;;;;;;;14.73;80.75;100707.96;2145644;81;30147;-68
2022/10/04 07:38:31;;;;;;;11.18;2.90;;;;;;;15.00;80.85;100706.38;2170294;81;31054;-68
2022/10/04 07:41:40;;;;;;;10.55;2.70;;;;;;;15.17;79.64;100698.09;2159126;81;34226;-65
2022/10/04 07:44:46;;;;;;;9.98;2.25;;;;;;;15.36;78.32;100696.09;2101736;81;29050;-61
2022/10/04 07:47:47;;;;;;;10.53;2.80;;;;;;;15.47;78.59;100703.86;2099694;83;28328;-61
2022/10/04 07:51:08;;;;;;;8.83;2.70;;;;;;;15.80;77.57;100705.84;2081337;83;29572;-68
2022/10/04 07:54:44;;;;;;;9.30;2.47;;;;;;;16.06;76.91;100709.58;2085198;84;31980;-64
2022/10/04 07:58:06;;;;;;;9.18;2.02;;;;;;;16.06;75.88;100701.47;2080701;83;33405;-62
2022/10/04 08:01:35;;;;;;;5.95;1.80;;;;;;;16.18;75.54;100706.55;2087082;83;29389;-61
2022/10/04 08:04:51;;;;;;;9.45;2.60;;;;;;;16.40;75.53;100704.61;2138262;82;27798;-64
2022/10/04 08:08:03;;;;;;;9.25;2.22;;;;;;;16.54;75.09;100704.15;2130655;82;29056;-63
2022/10/04 08:11:16;;;;;;;10.55;2.40;;;;;;;16.61;74.08;100715.41;2138642;82;31555;-63
2022/10/04 08:14:50;;;;;;;11.35;2.55;;;;;;;16.53;73.83;100716.82;2133107;82;33388;-63
2022/10/04 08:18:09;;;;;;;10.90;2.17;;;;;;;16.49;73.40;100725.22;2144722;81;29433;-63
2022/10/04 08:21:16;;;;;;;9.98;2.20;;;;;;;16.40;73.15;100724.01;2129318;82;27696;-61
2022/10/04 08:24:23;;;;;;;19.02;4.33;;;;;;;16.40;73.27;100730.77;2085947;82;29574;-63
2022/10/04 08:31:37;;;;;;;11.08;2.00;;;;;;;16.40;72.02;100738.87;2099711;82;33964;-68
2022/10/04 08:35:32;;;;;;;7.80;2.37;;;;;;;16.43;72.04;100733.27;2139722;81;29649;-64
2022/10/04 08:38:45;;;;;;;9.15;2.83;;;;;;;16.47;70.87;100738.86;2022137;86;27698;-64
2022/10/04 08:41:55;;;;;;;7.25;2.10;;;;;;;16.27;70.81;100742.03;2021304;86;28735;-65
2022/10/04 08:45:38;;;;;;;9.93;3.42;;;;;;;16.21;70.62;100736.55;2013142;86;31602;-61
2022/10/04 08:48:51;;;;;;;11.15;3.20;;;;;;;16.10;70.97;100746.25;2027649;86;34240;-65
2022/10/04 08:51:59;;;;;;;11.97;3.60;;;;;;;16.04;70.52;100745.79;2049290;84;29119;-63
2022/10/04 08:55:21;;;;;;;8.78;3.20;;;;;;;15.92;69.70;100744.25;2049254;84;27741;-63
2022/10/04 08:59:07;;;;;;;8.05;2.37;;;;;;;15.82;69.85;100753.02;2050258;85;29096;-63
2022/10/04 09:02:47;;;;;;;10.82;3.22;;;;;;;15.83;69.98;100752.94;2019562;86;31150;-64
2022/10/04 09:05:56;;;;;;;13.08;3.35;;;;;;;15.84;69.73;100750.62;1939427;89;33465;-62
2022/10/04 09:09:21;;;;;;;9.05;2.20;;;;;;;15.97;70.29;100750.70;1968969;89;29513;-63
2022/10/04 09:12:49;;;;;;;11.12;2.50;;;;;;;16.06;69.78;100752.81;1869419;94;28527;-62
2022/10/04 09:16:14;;;;;;;8.75;2.17;;;;;;;16.13;68.95;100760.03;1970303;89;29978;-62
2022/10/04 09:19:37;;;;;;;7.05;2.15;;;;;;;16.15;68.75;100754.52;1904673;90;31888;-63
2022/10/04 09:23:23;;;;;;;9.08;3.10;;;;;;;16.19;68.79;100757.41;1949548;89;33908;-64
2022/10/04 09:26:53;;;;;;;9.78;3.25;;;;;;;16.30;69.22;100758.05;1914611;90;31165;-63
2022/10/04 09:30:11;;;;;;;9.58;2.20;;;;;;;16.50;68.38;100760.30;1975380;88;27890;-62
2022/10/04 09:33:22;;;;;;;5.85;1.80;;;;;;;16.68;68.20;100755.47;1966343;88;28722;-60
2022/10/04 09:36:39;;;;;;;20.37;3.05;;;;;;;16.78;67.98;100748.94;1983398;89;32047;-63
2022/10/04 09:39:52;;;;;;;7.28;2.40;;;;;;;16.85;67.41;100756.15;1968665;89;33956;-63
2022/10/04 09:43:44;;;;;;;7.50;1.90;;;;;;;16.89;67.13;100760.85;2017116;85;28883;-62
2022/10/04 09:47:03;;;;;;;8.45;1.90;;;;;;;16.84;67.35;100765.23;1958153;88;27902;-64
2022/10/04 09:50:38;;;;;;;5.50;2.20;;;;;;;16.76;67.43;100771.67;2043457;86;43915;-64
2022/10/04 09:54:28;;;;;;;10.63;2.33;;;;;;;16.64;66.86;100778.78;2043952;85;31932;-65
2022/10/04 09:58:12;;;;;;;5.37;2.00;;;;;;;16.53;66.98;100772.73;2044163;86;33093;-63
2022/10/04 10:01:39;;;;;;;6.95;2.08;;;;;;;16.36;66.81;100778.79;2030076;86;30211;-64
2022/10/04 10:05:38;;;;;;;9.73;2.35;;;;;;;16.14;66.36;100782.05;2050350;85;27812;-63
2022/10/04 10:09:02;;;;;;;9.60;2.47;;;;;;;16.03;67.32;100769.73;2048391;86;29233;-62
2022/10/04 10:16:24;;;;;;;9.43;2.05;;;;;;;16.19;67.39;100767.75;2045187;86;34354;-62
2022/10/04 10:20:15;;;;;;;7.00;2.12;;;;;;;16.25;66.97;100779.49;2061637;83;31155;-64
2022/10/04 10:23:49;;;;;;;5.78;1.90;;;;;;;16.36;66.51;100783.34;2136884;82;27845;-63
2022/10/04 10:27:08;;;;;;;6.50;2.37;;;;;;;16.37;65.85;100787.78;2129582;82;29110;-63
2022/10/04 10:30:20;;;;;;;6.22;2.22;;;;;;;16.38;65.94;100796.28;2103710;83;32301;-63
2022/10/04 10:33:37;;;;;;;7.87;2.08;;;;;;;16.43;65.59;100801.38;2081049;83;33116;-63
2022/10/04 10:37:07;;;;;;;6.10;2.42;;;;;;;16.46;65.08;100795.27;2098224;83;29914;-64
2022/10/04 10:40:33;;;;;;;8.03;2.72;;;;;;;16.49;65.40;100799.59;2093282;83;28219;-63
2022/10/04 10:44:25;;;;;;;6.10;2.02;;;;;;;16.55;65.00;100796.50;2091324;83;29109;-62
2022/10/04 10:47:42;;;;;;;8.83;2.70;;;;;;;16.55;64.79;100797.34;2094580;82;32333;-63
2022/10/04 10:51:19;;;;;;;5.97;1.77;;;;;;;16.61;65.12;100792.04;2129225;82;33428;-63
2022/10/04 10:54:49;;;;;;;9.05;2.45;;;;;;;16.76;65.17;100786.56;2097278;84;30100;-63
2022/10/04 10:58:13;;;;;;;6.90;1.92;;;;;;;16.90;65.21;100778.83;2096465;83;27672;-64
2022/10/04 11:01:54;;;;;;;5.75;1.90;;;;;;;16.96;64.40;100783.86;2129683;82;28739;-62
2022/10/04 11:05:41;;;;;;;3.58;1.80;;;;;;;16.91;64.46;100796.33;1975032;87;31537;-64
2022/10/04 11:08:55;;;;;;;4.28;1.85;;;;;;;16.93;64.71;100791.69;2045341;86;33550;-62
2022/10/04 11:12:32;;;;;;;9.43;2.13;;;;;;;16.94;63.78;100802.01;2003163;86;30443;-62
2022/10/04 11:16:00;;;;;;;2.98;1.55;;;;;;;16.94;63.98;100788.01;2021854;86;27806;-62
2022/10/04 11:19:40;;;;;;;6.55;1.72;;;;;;;16.98;63.28;100793.60;2032539;86;30115;-61
2022/10/04 11:23:22;;;;;;;5.10;2.10;;;;;;;17.04;62.76;100785.57;1966081;89;31476;-69
2022/10/04 11:26:45;;;;;;;6.87;2.15;;;;;;;17.13;63.05;100788.09;1979444;88;33398;-62
2022/10/04 11:29:57;;;;;;;4.65;1.70;;;;;;;17.23;62.93;100789.67;1975482;88;29508;-61
2022/10/04 11:33:35;;;;;;;6.67;1.52;;;;;;;17.32;61.94;100798.53;1982567;89;27935;-62
2022/10/04 11:37:08;;;;;;;7.85;1.75;;;;;;;17.39;62.37;100803.88;2015903;86;28745;-62
2022/10/04 11:40:23;;;;;;;4.37;1.45;;;;;;;17.51;61.82;100795.88;1983709;87;31072;-62
2022/10/04 11:44:13;;;;;;;4.75;1.87;;;;;;;17.57;61.68;100801.72;1989502;87;33572;-62
2022/10/04 11:47:59;;;;;;;6.58;1.55;;;;;;;17.58;61.15;100806.16;2001834;88;30364;-62
2022/10/04 11:51:17;;;;;;;5.42;1.67;;;;;;;17.60;61.25;100812.34;1914906;92;27807;-62
2022/10/04 11:54:53;;;;;;;5.67;2.08;;;;;;;17.64;60.96;100814.34;1909702;91;30813;-62
2022/10/04 11:58:02;;;;;;;6.50;1.70;;;;;;;17.68;60.94;100814.98;1989969;86;31157;-62
2022/10/04 12:01:50;;;;;;;7.83;2.30;;;;;;;17.72;60.72;100819.20;2048460;86;33772;-62
2022/10/04 12:05:22;;;;;;;5.53;1.95;;;;;;;17.76;60.81;100818.02;2046108;85;29087;-62
2022/10/04 12:08:51;;;;;;;6.78;1.75;;;;;;;17.66;60.07;100824.58;2121936;82;28053;-62
2022/10/04 12:16:05;;;;;;;4.45;1.92;;;;;;;17.29;60.31;100817.69;2145078;82;32352;-62
2022/10/04 12:19:49;;;;;;;6.37;1.92;;;;;;;17.15;59.83;100811.88;2102884;83;33235;-62
2022/10/04 12:23:18;;;;;;;5.87;1.62;;;;;;;17.04;60.31;100817.17;2107951;83;30249;-62
2022/10/04 12:26:31;;;;;;;4.50;1.95;;;;;;;16.99;60.50;100808.87;2104391;83;27674;-61
2022/10/04 12:30:19;;;;;;;6.78;2.05;;;;;;;16.98;60.03;100803.58;2108815;82;28680;-62
2022/10/04 12:33:33;;;;;;;8.48;1.80;;;;;;;16.95;60.31;100810.08;2114620;83;31058;-62
2022/10/04 12:37:14;;;;;;;6.05;2.08;;;;;;;16.96;60.00;100802.81;2116769;83;34151;-62
2022/10/04 12:40:33;;;;;;;7.12;2.12;;;;;;;16.95;60.12;100807.84;2124652;82;30307;-62
2022/10/04 12:44:10;;;;;;;5.85;1.60;;;;;;;16.93;59.78;100816.05;1992638;88;27856;-62
2022/10/04 12:47:41;;;;;;;4.45;1.92;;;;;;;16.91;59.07;100811.22;1983074;87;30061;-62
2022/10/04 12:51:12;;;;;;;10.55;2.08;;;;;;;16.87;59.41;100806.98;1995872;87;31503;-63
2022/10/04 12:54:43;;;;;;;5.62;2.10;;;;;;;16.79;59.16;100811.56;2046434;86;34385;-62
2022/10/04 12:58:00;;;;;;;6.87;2.00;;;;;;;16.67;59.31;100804.28;2039539;86;29899;-63
2022/10/04 13:01:08;;;;;;;5.75;1.85;;;;;;;16.61;59.24;100800.63;2056741;86;27764;-63
2022/10/04 13:04:33;;;;;;;5.87;1.72;;;;;;;16.61;59.81;100801.97;2025428;86;28590;-63
2022/10/04 13:08:02;;;;;;;12.45;2.02;;;;;;;16.59;59.53;100806.14;2021011;86;31482;-62
2022/10/04 13:11:53;;;;;;;6.33;2.00;;;;;;;16.56;59.74;100813.11;2039430;86;33866;-62
2022/10/04 13:15:05;;;;;;;4.83;1.65;;;;;;;16.58;59.73;100804.41;2018616;86;30133;-63
2022/10/04 13:18:27;;;;;;;6.85;2.15;;;;;;;16.60;59.69;100807.88;2031119;86;27837;-63
2022/10/04 13:21:56;;;;;;;7.85;2.35;;;;;;;16.65;59.92;100811.13;2095612;83;29112;-62
2022/10/04 13:25:45;;;;;;;6.15;2.10;;;;;;;16.68;59.79;100810.08;2105602;82;32407;-63
2022/10/04 13:29:07;;;;;;;6.22;1.98;;;;;;;16.67;59.34;100817.30;2115660;83;33374;-63
2022/10/04 13:32:19;;;;;;;11.57;2.10;;;;;;;16.60;59.48;100823.23;2108856;83;29074;-63
2022/10/04 13:35:30;;;;;;;4.20;1.70;;;;;;;16.52;59.22;100815.63;2149536;81;27715;-63
2022/10/04 13:38:43;;;;;;;4.87;1.70;;;;;;;16.48;59.37;100815.44;2138775;81;28860;-63
2022/10/04 13:42:05;;;;;;;6.30;1.77;;;;;;;16.43;59.25;100817.60;2137168;81;31425;-62
2022/10/04 13:45:53;;;;;;;9.45;2.45;;;;;;;16.37;59.29;100821.09;2072094;84;34259;-62
2022/10/04 13:49:09;;;;;;;9.03;2.45;;;;;;;16.34;59.71;100821.78;2048304;86;29407;-62
2022/10/04 13:56:36;;;;;;;5.30;2.50;;;;;;;16.22;59.38;100827.50;2033223;86;30146;-62
2022/10/04 14:00:01;;;;;;;6.90;2.58;;;;;;;16.10;59.39;100835.91;2022931;86;31498;-62
2022/10/04 14:03:37;;;;;;;5.35;3.47;;;;;;;15.97;59.53;100834.97;2017025;85;34245;-63
2022/10/04 14:07:02;;;;;;;6.15;2.40;;;;;;;15.87;59.77;100838.27;2047723;83;29478;-62
2022/10/04 14:10:38;;;;;;;;;;;;;;;15.77;59.88;100835.71;1960678;88;27708;-62
2022/10/04 14:14:18;;;;;;;7.22;1.80;;;;;;;15.73;60.15;100840.45;1993068;87;29140;-62
2022/10/04 14:17:55;;;;;;;4.53;2.30;;;;;;;15.63;60.57;100830.70;1986885;88;31121;-62
2022/10/04 14:21:32;;;;;;;4.83;1.98;;;;;;;15.57;60.85;100839.67;1973090;88;34463;-62
2022/10/04 14:24:48;;;;;;;8.28;1.55;;;;;;;15.48;60.58;100841.10;2045878;86;30310;-62
2022/10/04 14:28:01;;;;;;;5.85;2.42;;;;;;;15.39;60.54;100835.79;2043057;86;27736;-62
2022/10/04 14:31:28;;;;;;;7.62;2.15;;;;;;;15.33;60.70;100837.50;2043420;86;28688;-62
2022/10/04 14:35:16;;;;;;;7.08;1.85;;;;;;;15.24;60.86;100841.63;2018266;86;31491;-63
2022/10/04 14:38:47;;;;;;;6.20;2.02;;;;;;;15.18;60.83;100848.77;2044323;86;33381;-62
2022/10/04 14:42:30;;;;;;;5.97;1.90;;;;;;;15.10;61.11;100856.44;2061696;85;29208;-62
2022/10/04 14:45:52;;;;;;;5.30;2.40;;;;;;;15.06;61.23;100856.26;2014360;87;28448;-62
2022/10/04 14:49:02;;;;;;;12.07;2.02;;;;;;;14.99;61.54;100849.86;2084873;83;29114;-63
2022/10/04 14:52:38;;;;;;;4.70;1.77;;;;;;;14.93;61.41;100849.36;2067012;84;31696;-62
2022/10/04 14:55:53;;;;;;;5.15;2.08;;;;;;;14.88;61.52;100855.89;2085799;84;33917;-62
2022/10/04 14:59:06;;;;;;;5.37;1.85;;;;;;;14.82;61.67;100852.69;2085500;85;29443;-62
2022/10/04 15:02:50;;;;;;;6.87;2.47;;;;;;;14.77;61.40;100853.42;2061286;85;28132;-62
2022/10/04 15:06:06;;;;;;;4.35;2.15;;;;;;;14.70;61.44;100862.36;2056989;85;29096;-62
2022/10/04 15:09:44;;;;;;;6.20;1.92;;;;;;;14.63;61.50;100860.96;2051261;85;31416;-62
2022/10/04 15:13:02;;;;;;;3.98;1.52;;;;;;;14.57;61.70;100861.70;2057374;84;33705;-63
2022/10/04 15:16:32;;;;;;;7.22;1.77;;;;;;;14.48;61.67;100864.05;2023977;86;29069;-63
2022/10/04 15:19:52;;;;;;;8.00;2.00;;;;;;;14.21;61.84;100842.61;2025920;86;28074;-62
2022/10/04 15:23:20;;;;;;;7.80;1.75;;;;;;;14.21;61.84;100842.61;2022411;86;29552;-63
2022/10/04 15:26:37;;;;;;;5.78;1.87;;;;;;;14.28;62.17;100859.30;2013508;86;31104;-63
2022/10/04 15:30:02;;;;;;;4.10;1.77;;;;;;;14.23;62.28;100862.75;1995114;86;33482;-62
2022/10/04 15:33:20;;;;;;;7.67;2.05;;;;;;;14.16;62.54;100869.42;1998400;86;30059;-63
2022/10/04 15:36:37;;;;;;;9.73;2.72;;;;;;;14.06;62.62;100871.30;2049858;85;27945;-62
2022/10/04 15:40:04;;;;;;;14.07;1.85;;;;;;;13.98;62.83;100870.34;2051577;85;29870;-63